Time;durP1;ratioP1;P1;durP2;ratioP2;P2;SDS_P1;SDS_P2;PMS_P1;PMS_P2;Temp;Humidity;BMP_temperature;BMP_pressure;BME280_temperature;BME280_humidity;BME280_pressure;Samples;Min_cycle;Max_cycle;Signal;HPM_P1;HPM_P2
2022/07/07 11:28:20;;;;;;;2.95;0.80;;;;;;;;;;5112007;27;20954;-81
2022/07/07 11:38:37;;;;;;;1.60;0.68;;;;;;;;;;5111565;27;20437;-66
2022/07/07 11:41:03;;;;;;;0.55;0.40;;;;;;;;;;5111251;28;20024;-61
2022/07/07 12:13:00;;;;;;;3.50;0.50;;;;;;;;;;5070958;28;20383;-60
2022/07/07 12:15:27;;;;;;;1.67;0.50;;;;;;;;;;5070990;28;20036;-60
2022/07/07 12:17:54;;;;;;;4.15;0.60;;;;;;;;;;5070688;28;20055;-60
2022/07/07 12:20:20;;;;;;;4.15;1.00;;;;;;;;;;5070761;28;20056;-61
2022/07/07 12:22:51;;;;;;;1.45;0.57;;;;;;;;;;5070462;28;20096;-61
2022/07/07 12:25:17;;;;;;;7.13;1.00;;;;;;;;;;5070996;28;20083;-61
2022/07/07 12:28:00;;;;;;;1.48;0.70;;;;;;;;;;5071230;28;20031;-61
2022/07/07 12:30:27;;;;;;;3.30;0.90;;;;;;;;;;5070698;28;20469;-64
2022/07/07 12:32:53;;;;;;;1.08;0.95;;;;;;;;;;5069239;28;20066;-64
2022/07/07 12:35:33;;;;;;;2.90;1.17;;;;;;;;;;5070104;28;20032;-64
2022/07/07 12:38:00;;;;;;;5.40;0.90;;;;;;;;;;5068527;28;20017;-63
2022/07/07 12:40:27;;;;;;;2.83;0.57;;;;;;;;;;5070285;28;20103;-67
2022/07/07 12:42:53;;;;;;;1.42;0.52;;;;;;;;;;5070056;28;20481;-71
2022/07/07 12:45:20;;;;;;;16.50;3.05;;;;;;;;;;5070132;28;20021;-63
2022/07/07 12:47:47;;;;;;;2.60;0.60;;;;;;;;;;5070018;28;20017;-65
2022/07/07 12:50:13;;;;;;;1.17;0.40;;;;;;;;;;5069916;28;20431;-62
2022/07/07 12:52:53;;;;;;;2.45;0.95;;;;;;;;;;5069761;28;20021;-67
2022/07/07 12:55:19;;;;;;;15.18;2.90;;;;;;;;;;5069342;28;20385;-71
2022/07/07 12:57:45;;;;;;;2.72;0.70;;;;;;;;;;5069583;28;20024;-69
2022/07/07 13:11:16;;;;;;;0.52;0.50;;;;;;;;;;5070450;28;20851;-64
2022/07/07 13:13:43;;;;;;;0.20;0.20;;;;;;;;;;5070504;28;20059;-60
2022/07/07 13:16:09;;;;;;;0.22;0.20;;;;;;;;;;5070696;28;20433;-63
2022/07/07 13:18:36;;;;;;;0.00;0.00;;;;;;;;;;5071261;28;20025;-61
2022/07/07 13:21:03;;;;;;;0.00;0.00;;;;;;;;;;5070585;28;20013;-58
2022/07/07 13:23:30;;;;;;;0.00;0.00;;;;;;;;;;5070828;28;20477;-60
2022/07/07 13:44:11;;;;;;;0.25;0.22;;;25.50;64.20;;;;;;5070959;28;20402;-57
2022/07/07 13:46:37;;;;;;;3.00;0.77;;;25.50;63.80;;;;;;5070662;28;20032;-55
2022/07/07 13:49:02;;;;;;;2.10;0.60;;;25.90;63.30;;;;;;5071081;28;20039;-59
2022/07/07 13:51:28;;;;;;;0.10;0.10;;;25.90;63.40;;;;;;5070450;28;20100;-55
2022/07/07 13:53:54;;;;;;;0.10;0.10;;;25.50;63.00;;;;;;5070579;28;20391;-58
2022/07/07 13:56:19;;;;;;;0.15;0.15;;;25.80;63.90;;;;;;5071033;28;20025;-56
2022/07/07 13:58:45;;;;;;;0.05;0.05;;;25.90;64.00;;;;;;5070644;28;20108;-61
2022/07/07 14:01:12;;;;;;;0.00;0.00;;;25.40;63.20;;;;;;5070558;28;20033;-61
2022/07/07 14:07:01;;;;;;;0.10;0.10;;;26.10;62.40;;;;;;5070583;28;20424;-64
2022/07/07 14:09:27;;;;;;;0.20;0.10;;;25.80;62.30;;;;;;5070721;28;20032;-57
2022/07/07 14:11:52;;;;;;;0.30;0.30;;;26.10;63.10;;;;;;5070714;28;20036;-59
2022/07/07 14:14:18;;;;;;;0.52;0.52;;;26.20;62.40;;;;;;5070740;28;20043;-58
2022/07/07 14:16:44;;;;;;;0.10;0.10;;;26.30;62.20;;;;;;5070751;28;20527;-59
2022/07/07 14:19:10;;;;;;;1.65;1.35;;;26.40;62.20;;;;;;5070478;28;20029;-57
2022/07/07 14:21:36;;;;;;;0.10;0.10;;;26.50;61.60;;;;;;5070515;28;20448;-61
2022/07/07 14:24:02;;;;;;;0.80;0.20;;;26.50;62.30;;;;;;5070350;28;20092;-58
2022/07/07 14:26:28;;;;;;;1.45;0.38;;;26.40;61.30;;;;;;5070372;28;20036;-57
2022/07/07 14:28:54;;;;;;;0.15;0.15;;;26.30;62.10;;;;;;5070330;28;20097;-58
2022/07/07 14:31:20;;;;;;;0.35;0.32;;;26.20;61.10;;;;;;5070346;28;20104;-60
2022/07/07 14:33:46;;;;;;;0.20;0.20;;;25.90;62.50;;;;;;5070356;28;20051;-55
2022/07/07 14:36:12;;;;;;;0.73;0.50;;;26.10;63.00;;;;;;5070233;28;20053;-56
2022/07/07 14:38:38;;;;;;;0.45;0.45;;;26.00;61.70;;;;;;5070281;28;20062;-59
2022/07/07 14:41:04;;;;;;;0.10;0.10;;;25.90;63.00;;;;;;5070033;28;20033;-58
2022/07/07 14:43:30;;;;;;;0.35;0.25;;;25.90;62.60;;;;;;5070153;28;20035;-59
2022/07/07 14:45:56;;;;;;;0.50;0.30;;;25.90;62.50;;;;;;5069996;28;20033;-62
2022/07/07 14:48:21;;;;;;;2.25;0.70;;;25.90;63.50;;;;;;5070090;28;20086;-73
2022/07/07 14:50:47;;;;;;;0.00;0.00;;;25.80;62.60;;;;;;5070205;28;20032;-64
2022/07/07 14:53:13;;;;;;;1.60;0.30;;;25.80;62.60;;;;;;5070013;28;20187;-60
2022/07/07 14:55:41;;;;;;;0.57;0.20;;;25.80;62.90;;;;;;5069713;28;20028;-59
2022/07/07 14:58:07;;;;;;;0.20;0.20;;;25.70;61.50;;;;;;5070182;28;20025;-55
2022/07/07 15:00:33;;;;;;;0.30;0.30;;;25.60;62.60;;;;;;5069695;28;20144;-61
2022/07/07 15:02:58;;;;;;;3.95;0.47;;;25.60;62.70;;;;;;5069463;28;20029;-61
2022/07/07 15:05:24;;;;;;;0.40;0.30;;;25.60;63.10;;;;;;5069336;28;20485;-61
2022/07/07 15:07:50;;;;;;;266.95;96.38;;;25.40;62.70;;;;;;5068355;28;20025;-60
2022/07/07 15:10:16;;;;;;;91.30;40.50;;;25.40;63.80;;;;;;5069337;28;20031;-61
2022/07/07 15:12:42;;;;;;;43.05;13.85;;;25.20;64.30;;;;;;5069690;28;20021;-61
2022/07/07 15:15:11;;;;;;;19.27;10.18;;;25.10;64.50;;;;;;5069176;28;20033;-60
2022/07/07 15:17:36;;;;;;;23.17;11.48;;;25.00;64.10;;;;;;5060197;28;20100;-60
2022/07/07 15:20:03;;;;;;;9.38;6.28;;;25.10;65.70;;;;;;5055816;28;20500;-61
2022/07/07 15:22:29;;;;;;;143.98;72.25;;;25.10;64.40;;;;;;5055793;28;20036;-60
2022/07/07 15:24:54;;;;;;;72.35;39.13;;;25.00;65.20;;;;;;5055913;28;20037;-58
2022/07/07 15:27:20;;;;;;;42.75;19.05;;;25.70;66.80;;;;;;5056244;28;20108;-58
2022/07/07 15:29:46;;;;;;;24.85;13.85;;;25.00;65.80;;;;;;5056131;28;20025;-58
2022/07/07 15:32:11;;;;;;;23.13;10.63;;;24.90;65.70;;;;;;5056124;28;20033;-58
2022/07/07 15:34:37;;;;;;;8.13;6.80;;;24.80;66.00;;;;;;5055748;28;20462;-58
2022/07/07 15:37:03;;;;;;;7.32;4.32;;;25.20;68.80;;;;;;5055861;28;20024;-58
2022/07/07 15:39:28;;;;;;;7.53;5.78;;;25.50;64.80;;;;;;5055414;28;20025;-56
2022/07/07 15:41:54;;;;;;;8.00;4.88;;;25.40;69.80;;;;;;5054349;28;20029;-54
2022/07/07 15:44:20;;;;;;;9.00;5.85;;;25.50;64.00;;;;;;5055564;28;20025;-59
2022/07/07 15:46:45;;;;;;;3.92;3.13;;;25.50;64.30;;;;;;5055492;28;20146;-58
2022/07/07 15:52:55;;;;;;;0.10;0.10;;;25.90;60.90;;;;;;5060727;27;1444349;-78
2022/07/07 15:55:24;;;;;;;0.20;0.20;;;26.40;60.00;;;;;;5089274;28;20068;-79
2022/07/07 15:57:49;;;;;;;;;;;25.30;59.10;;;;;;5090906;28;20020;-78
2022/07/07 16:00:16;;;;;;;0.40;0.20;;;24.50;63.40;;;;;;5090545;28;19904;-79
2022/07/07 16:02:42;;;;;;;0.20;0.20;;;24.00;65.50;;;;;;5089628;28;20440;-80
2022/07/07 16:05:07;;;;;;;0.00;0.00;;;23.30;67.50;;;;;;5089003;28;20111;-77
2022/07/07 16:07:33;;;;;;;0.22;0.22;;;23.30;72.00;;;;;;5090551;28;20103;-79
2022/07/07 16:09:59;;;;;;;0.10;0.10;;;23.50;71.00;;;;;;5090459;28;20020;-84
2022/07/07 16:12:25;;;;;;;0.08;0.08;;;23.50;72.50;;;;;;5090115;28;20043;-78
2022/07/07 16:14:51;;;;;;;0.20;0.20;;;;;;;;;;5088924;28;20035;-79
2022/07/07 16:17:17;;;;;;;5.20;0.30;;;23.30;74.50;;;;;;5089532;28;20067;-86
2022/07/07 16:19:43;;;;;;;0.63;0.10;;;23.50;74.70;;;;;;5090783;28;20024;-73
2022/07/07 16:22:09;;;;;;;0.20;0.15;;;23.70;74.50;;;;;;5090350;28;20031;-72
2022/07/07 16:24:34;;;;;;;0.17;0.17;;;23.60;69.40;;;;;;5090244;28;20027;-72
2022/07/07 16:27:02;;;;;;;0.03;0.03;;;23.30;70.40;;;;;;5090046;28;20028;-72
2022/07/07 16:29:28;;;;;;;2.25;0.13;;;23.30;73.30;;;;;;5089934;28;20016;-71
2022/07/07 16:31:54;;;;;;;0.10;0.10;;;23.00;75.40;;;;;;5090041;28;20571;-72
2022/07/07 16:34:20;;;;;;;0.10;0.10;;;23.00;79.80;;;;;;5089889;28;20078;-70
2022/07/07 16:36:46;;;;;;;0.10;0.10;;;22.90;81.20;;;;;;5089818;28;20032;-73
2022/07/07 16:39:15;;;;;;;0.13;0.13;;;22.80;79.70;;;;;;5088615;28;20025;-72
2022/07/07 16:41:45;;;;;;;0.35;0.35;;;22.70;88.30;;;;;;5088417;28;20020;-69
2022/07/07 16:44:11;;;;;;;0.10;0.10;;;22.70;87.20;;;;;;5089804;28;20055;-74
2022/07/07 16:46:37;;;;;;;0.00;0.00;;;22.60;90.50;;;;;;5088369;28;20485;-75
2022/07/07 16:49:03;;;;;;;0.00;0.00;;;22.50;92.00;;;;;;5089767;28;20420;-71
2022/07/07 16:51:29;;;;;;;0.10;0.10;;;22.40;95.60;;;;;;5097425;28;20047;-72
2022/07/07 16:54:02;;;;;;;0.10;0.10;;;22.60;95.90;;;;;;5091601;28;20383;-72
2022/07/07 16:56:33;;;;;;;0.40;0.40;;;22.80;90.80;;;;;;5109706;28;20020;-70
2022/07/07 16:58:59;;;;;;;0.10;0.10;;;22.90;91.50;;;;;;5109786;28;20041;-69
2022/07/07 17:01:26;;;;;;;0.10;0.10;;;22.80;88.20;;;;;;5091442;28;20024;-72
2022/07/07 17:03:52;;;;;;;0.43;0.43;;;22.60;93.00;;;;;;5080102;28;20088;-71
2022/07/07 17:06:20;;;;;;;0.10;0.10;;;22.40;99.60;;;;;;5077822;28;20028;-72
2022/07/07 17:08:46;;;;;;;0.20;0.13;;;22.30;99.90;;;;;;5095866;28;20124;-70
2022/07/07 17:11:13;;;;;;;0.00;0.00;;;22.20;99.90;;;;;;5077641;28;20024;-78
2022/07/07 17:13:39;;;;;;;0.47;0.35;;;22.10;99.90;;;;;;5096010;28;20027;-78
2022/07/07 17:16:06;;;;;;;0.10;0.10;;;21.90;99.90;;;;;;5095993;28;20020;-79
2022/07/07 17:18:32;;;;;;;0.10;0.10;;;21.70;99.90;;;;;;5077911;28;20066;-76
2022/07/07 17:20:58;;;;;;;0.38;0.03;;;21.70;99.90;;;;;;5095860;28;20032;-72
2022/07/07 17:23:24;;;;;;;0.20;0.20;;;21.60;99.90;;;;;;5095671;28;20490;-77
2022/07/07 17:25:50;;;;;;;0.15;0.15;;;21.60;99.90;;;;;;5095546;28;20110;-71
2022/07/07 17:28:16;;;;;;;0.00;0.00;;;21.60;99.90;;;;;;5095542;28;20415;-72
2022/07/07 17:30:41;;;;;;;0.17;0.17;;;21.50;99.90;;;;;;5095393;28;20028;-71
2022/07/07 17:33:07;;;;;;;0.20;0.20;;;21.50;99.90;;;;;;5095665;28;20081;-72
2022/07/07 17:35:33;;;;;;;0.10;0.10;;;21.40;99.90;;;;;;5095575;28;20028;-72
2022/07/07 17:37:58;;;;;;;0.10;0.10;;;21.40;99.90;;;;;;5095476;28;20111;-72
2022/07/07 17:40:26;;;;;;;0.65;0.20;;;21.40;99.90;;;;;;5077186;28;20452;-72
2022/07/07 17:42:54;;;;;;;0.45;0.45;;;21.50;99.90;;;;;;5095088;28;20030;-72
2022/07/07 17:45:22;;;;;;;0.10;0.10;;;21.50;99.90;;;;;;5095225;28;20020;-72
2022/07/07 17:47:51;;;;;;;0.22;0.22;;;21.50;99.90;;;;;;5095061;28;20020;-71
2022/07/07 17:50:17;;;;;;;1.00;0.20;;;21.50;99.90;;;;;;5095378;28;20069;-73
2022/07/07 17:52:43;;;;;;;0.40;0.22;;;21.40;99.90;;;;;;5095377;28;20052;-73
2022/07/07 17:55:09;;;;;;;0.10;0.10;;;21.20;99.90;;;;;;5095256;28;20031;-70
2022/07/07 17:57:35;;;;;;;0.38;0.20;;;21.10;99.90;;;;;;5076994;28;20051;-70
2022/07/07 18:00:01;;;;;;;0.38;0.20;;;21.00;99.90;;;;;;5094822;28;20048;-70
2022/07/07 18:02:27;;;;;;;0.20;0.20;;;21.00;99.90;;;;;;5094877;28;20024;-72
2022/07/07 18:04:53;;;;;;;0.65;0.13;;;20.90;99.90;;;;;;5076736;28;20062;-71
2022/07/07 18:07:18;;;;;;;0.20;0.20;;;20.90;99.90;;;;;;5094940;28;20027;-72
2022/07/07 18:09:44;;;;;;;0.10;0.10;;;20.90;99.90;;;;;;5095000;28;20028;-70
2022/07/07 18:12:10;;;;;;;0.13;0.10;;;20.80;99.90;;;;;;5094824;28;20043;-71
2022/07/07 18:14:36;;;;;;;0.10;0.10;;;20.80;99.90;;;;;;5093790;28;20051;-72
2022/07/07 18:17:02;;;;;;;0.32;0.32;;;20.80;99.90;;;;;;5094887;28;20543;-70
2022/07/07 18:19:28;;;;;;;0.22;0.20;;;20.70;99.90;;;;;;5094982;28;20028;-69
2022/07/07 18:21:54;;;;;;;0.20;0.20;;;20.60;99.90;;;;;;5094747;28;20028;-70
2022/07/07 18:24:20;;;;;;;0.20;0.20;;;20.50;99.90;;;;;;5094913;28;20070;-70
2022/07/07 18:26:45;;;;;;;0.10;0.10;;;20.40;99.90;;;;;;5094804;28;20024;-70
2022/07/07 18:29:11;;;;;;;0.40;0.40;;;20.40;99.90;;;;;;5076416;28;20027;-70
2022/07/07 18:31:37;;;;;;;0.28;0.28;;;20.40;99.90;;;;;;5094565;28;20035;-70
2022/07/07 18:34:04;;;;;;;1.08;1.00;;;20.30;99.90;;;;;;5094428;28;20051;-70
2022/07/07 18:36:30;;;;;;;0.10;0.10;;;20.30;99.90;;;;;;5094561;28;20032;-70
2022/07/07 18:38:56;;;;;;;0.10;0.10;;;20.30;99.90;;;;;;5094665;28;20368;-70
2022/07/07 18:41:22;;;;;;;0.10;0.10;;;20.20;99.90;;;;;;5094825;28;20021;-72
2022/07/07 18:43:48;;;;;;;0.17;0.17;;;20.10;99.90;;;;;;5094640;28;20023;-70
2022/07/07 18:46:15;;;;;;;0.10;0.10;;;20.00;99.90;;;;;;5076717;28;20031;-70
2022/07/07 18:48:41;;;;;;;0.13;0.13;;;19.90;99.90;;;;;;5076613;28;20469;-70
2022/07/07 18:53:51;;;;;;;1.55;0.30;;;19.80;99.90;;;;;;5094581;28;20027;-70
2022/07/07 18:56:17;;;;;;;0.20;0.20;;;19.80;99.90;;;;;;5094282;28;20412;-70
2022/07/07 18:58:43;;;;;;;0.10;0.10;;;19.70;99.90;;;;;;5094309;28;20027;-70
2022/07/07 19:01:08;;;;;;;0.35;0.35;;;19.70;99.90;;;;;;5094510;28;20032;-70
2022/07/07 19:03:34;;;;;;;1.17;0.55;;;19.70;99.90;;;;;;5094451;28;20020;-70
2022/07/07 19:06:00;;;;;;;0.10;0.10;;;19.70;99.90;;;;;;5076149;28;20461;-72
2022/07/07 19:08:25;;;;;;;0.13;0.13;;;19.70;99.90;;;;;;5093966;28;20482;-72
2022/07/07 19:10:53;;;;;;;0.10;0.10;;;19.60;99.90;;;;;;5094230;28;20028;-70
2022/07/07 19:13:19;;;;;;;0.10;0.10;;;19.60;99.90;;;;;;5075890;28;20043;-71
2022/07/07 19:15:44;;;;;;;0.25;0.25;;;19.60;99.90;;;;;;5093742;28;20460;-71
2022/07/07 19:18:10;;;;;;;0.20;0.20;;;19.60;99.90;;;;;;5093531;28;20056;-70
2022/07/07 19:20:37;;;;;;;0.08;0.08;;;19.60;99.90;;;;;;5093592;28;20077;-70
2022/07/07 19:23:02;;;;;;;0.22;0.20;;;19.60;99.90;;;;;;5093613;28;20024;-70
2022/07/07 19:25:28;;;;;;;0.40;0.40;;;19.50;99.90;;;;;;5093403;28;20043;-74
2022/07/07 19:27:54;;;;;;;1.55;0.45;;;19.60;99.90;;;;;;5093945;28;20395;-75
2022/07/07 19:30:19;;;;;;;0.10;0.10;;;19.50;99.90;;;;;;5093505;28;20054;-72
2022/07/07 19:32:45;;;;;;;0.20;0.20;;;19.40;99.90;;;;;;5093225;28;20039;-74
2022/07/07 19:35:11;;;;;;;0.17;0.10;;;19.40;99.90;;;;;;5093959;28;20587;-74
2022/07/07 19:37:37;;;;;;;0.57;0.57;;;19.40;99.90;;;;;;5093356;28;20416;-75
2022/07/07 19:40:03;;;;;;;0.10;0.10;;;19.30;99.90;;;;;;5093416;28;20479;-75
2022/07/07 19:42:29;;;;;;;0.15;0.10;;;19.30;99.90;;;;;;5093843;28;20023;-75
2022/07/07 19:44:55;;;;;;;0.30;0.30;;;19.30;99.90;;;;;;5094844;28;20024;-74
2022/07/07 19:47:21;;;;;;;0.10;0.10;;;19.30;99.90;;;;;;5095489;28;20021;-75
2022/07/07 19:49:48;;;;;;;0.10;0.10;;;19.20;99.90;;;;;;5097026;28;20480;-75
2022/07/07 19:52:14;;;;;;;0.15;0.10;;;19.20;99.90;;;;;;5079251;28;20048;-75
2022/07/07 19:54:40;;;;;;;0.20;0.17;;;19.20;99.90;;;;;;5076811;28;20027;-74
2022/07/07 19:57:05;;;;;;;0.20;0.20;;;19.10;99.90;;;;;;5093593;28;20099;-75
2022/07/07 19:59:31;;;;;;;0.10;0.10;;;19.10;99.90;;;;;;5075580;28;20483;-74
2022/07/07 20:01:56;;;;;;;0.10;0.10;;;19.10;99.90;;;;;;5093455;28;20057;-74
2022/07/07 20:04:23;;;;;;;0.10;0.10;;;19.10;99.90;;;;;;5093014;28;20380;-75
2022/07/07 20:06:49;;;;;;;0.17;0.17;;;19.00;99.90;;;;;;5075030;28;20059;-75
2022/07/07 20:09:15;;;;;;;0.20;0.20;;;19.00;99.90;;;;;;5093035;28;20032;-75
2022/07/07 20:11:41;;;;;;;0.13;0.13;;;19.00;99.90;;;;;;5094982;28;20024;-75
2022/07/07 20:14:07;;;;;;;0.32;0.32;;;19.00;99.90;;;;;;5095168;28;20035;-75
2022/07/07 20:16:33;;;;;;;0.10;0.10;;;18.90;99.90;;;;;;5075437;28;20016;-75
2022/07/07 20:19:00;;;;;;;0.43;0.43;;;18.80;99.90;;;;;;5074896;28;20035;-75
2022/07/07 20:21:26;;;;;;;0.10;0.10;;;18.80;99.90;;;;;;5092907;28;20427;-75
2022/07/07 20:23:54;;;;;;;0.10;0.10;;;18.70;99.90;;;;;;5092840;28;20020;-75
2022/07/07 20:26:20;;;;;;;0.10;0.10;;;18.50;99.90;;;;;;5092861;28;20086;-76
2022/07/07 20:28:45;;;;;;;0.08;0.08;;;18.50;99.90;;;;;;5074628;28;20032;-73
2022/07/07 20:31:11;;;;;;;0.17;0.17;;;18.40;99.90;;;;;;5092890;28;20039;-73
2022/07/07 20:33:38;;;;;;;0.40;0.40;;;18.40;99.90;;;;;;5092812;28;20365;-73
2022/07/07 20:36:04;;;;;;;0.20;0.20;;;18.30;99.90;;;;;;5074638;28;20107;-75
2022/07/07 20:38:30;;;;;;;0.15;0.13;;;18.20;99.90;;;;;;5094947;28;20111;-75
2022/07/07 20:40:58;;;;;;;0.10;0.10;;;18.20;99.90;;;;;;5078362;28;20471;-75
2022/07/07 20:43:26;;;;;;;0.17;0.17;;;18.10;99.90;;;;;;5078168;28;20035;-75
2022/07/07 20:45:53;;;;;;;0.20;0.20;;;18.10;99.90;;;;;;5078177;28;20020;-75
2022/07/07 20:48:24;;;;;;;0.28;0.28;;;18.00;99.90;;;;;;5096485;28;20048;-75
2022/07/07 20:50:50;;;;;;;0.55;0.45;;;18.00;99.90;;;;;;5096193;28;20016;-74
2022/07/07 20:53:16;;;;;;;0.20;0.20;;;17.90;99.90;;;;;;5096426;28;20090;-75
2022/07/07 20:55:42;;;;;;;0.20;0.20;;;17.80;99.90;;;;;;5096426;28;20472;-75
2022/07/07 20:58:09;;;;;;;0.40;0.17;;;17.70;99.90;;;;;;5078111;28;20043;-74
2022/07/07 21:00:35;;;;;;;0.10;0.10;;;17.60;99.90;;;;;;5096176;28;20479;-75
2022/07/07 21:03:00;;;;;;;0.28;0.28;;;17.50;99.90;;;;;;5096112;28;20020;-75
2022/07/07 21:05:26;;;;;;;0.10;0.10;;;17.40;99.90;;;;;;5096372;28;20028;-74
2022/07/07 21:07:52;;;;;;;0.43;0.38;;;17.20;99.90;;;;;;5096027;28;20031;-74
2022/07/07 21:10:18;;;;;;;0.30;0.20;;;17.20;99.90;;;;;;5096114;28;20533;-74
2022/07/07 21:12:45;;;;;;;0.32;0.30;;;17.10;99.90;;;;;;5096054;28;20123;-75
2022/07/07 21:15:11;;;;;;;0.10;0.10;;;17.00;99.90;;;;;;5096603;28;20016;-75
2022/07/07 21:17:37;;;;;;;0.15;0.15;;;17.10;99.90;;;;;;5077970;28;20024;-74
2022/07/07 21:20:03;;;;;;;3.78;0.50;;;17.00;99.90;;;;;;5077512;28;20112;-74
2022/07/07 21:22:29;;;;;;;5.82;0.75;;;16.90;99.90;;;;;;5077476;28;20510;-74
2022/07/07 21:24:54;;;;;;;1.00;0.25;;;16.90;99.90;;;;;;5095641;28;20107;-74
2022/07/07 21:27:20;;;;;;;0.73;0.73;;;16.80;99.90;;;;;;5077650;28;20020;-75
2022/07/07 21:29:46;;;;;;;0.20;0.20;;;16.70;99.90;;;;;;5077656;28;20511;-75
2022/07/07 21:32:12;;;;;;;0.35;0.35;;;16.60;99.90;;;;;;5095333;28;20031;-74
2022/07/07 21:34:39;;;;;;;0.32;0.32;;;16.50;99.90;;;;;;5077173;28;20024;-75
2022/07/07 21:37:05;;;;;;;0.20;0.20;;;16.40;99.90;;;;;;5077310;28;20024;-76
2022/07/07 21:39:31;;;;;;;0.30;0.30;;;16.20;99.90;;;;;;5077612;28;20020;-75
2022/07/07 21:41:57;;;;;;;2.03;1.33;;;16.10;99.90;;;;;;5096870;28;20039;-74
2022/07/07 21:44:23;;;;;;;0.10;0.10;;;16.00;99.90;;;;;;5096268;28;20353;-75
2022/07/07 21:46:49;;;;;;;0.38;0.38;;;15.80;99.90;;;;;;5077980;28;20020;-75
2022/07/07 21:49:14;;;;;;;0.45;0.45;;;15.70;99.90;;;;;;5097198;28;20075;-75
2022/07/07 21:51:40;;;;;;;0.50;0.50;;;15.60;99.90;;;;;;5095703;28;20044;-74
2022/07/07 21:54:06;;;;;;;0.30;0.30;;;15.50;99.90;;;;;;5095241;28;20026;-74
2022/07/07 21:56:34;;;;;;;0.32;0.32;;;15.40;99.90;;;;;;5076531;28;20457;-74
2022/07/07 21:59:00;;;;;;;0.20;0.20;;;15.30;99.90;;;;;;5076801;28;20441;-74
2022/07/07 22:01:25;;;;;;;0.28;0.28;;;15.20;99.90;;;;;;5095073;28;20051;-74
2022/07/07 22:09:20;;;;;;;0.57;0.57;;;15.10;99.90;;;;;;5094890;28;20031;-75
2022/07/07 22:11:46;;;;;;;0.90;0.22;;;15.10;99.90;;;;;;5094863;28;20032;-73
2022/07/07 22:14:12;;;;;;;0.30;0.30;;;15.10;99.90;;;;;;5094860;28;20012;-74
2022/07/07 22:16:37;;;;;;;0.47;0.47;;;15.00;99.90;;;;;;5094906;28;20123;-75
2022/07/07 22:19:03;;;;;;;0.45;0.45;;;15.00;99.90;;;;;;5094666;28;20026;-74
2022/07/07 22:21:29;;;;;;;0.50;0.50;;;15.00;99.90;;;;;;5094665;28;20035;-74
2022/07/07 22:23:55;;;;;;;0.38;0.38;;;15.10;99.90;;;;;;5094867;28;20054;-74
2022/07/07 22:26:21;;;;;;;0.55;0.55;;;15.20;99.90;;;;;;5094536;28;20028;-74
2022/07/07 22:28:47;;;;;;;0.17;0.17;;;15.20;99.90;;;;;;5094552;28;20035;-74
2022/07/07 22:31:13;;;;;;;1.10;0.20;;;15.30;99.90;;;;;;5076063;28;20028;-74
2022/07/07 22:33:39;;;;;;;0.20;0.20;;;15.30;99.90;;;;;;5076022;28;20020;-74
2022/07/07 22:36:05;;;;;;;0.30;0.30;;;15.30;99.90;;;;;;5076181;28;20165;-74
2022/07/07 22:38:30;;;;;;;0.60;0.60;;;15.30;99.90;;;;;;5094263;28;20114;-74
2022/07/07 22:40:57;;;;;;;0.38;0.38;;;15.20;99.90;;;;;;5094274;28;20024;-75
2022/07/07 22:43:22;;;;;;;0.60;0.47;;;15.10;99.90;;;;;;5094310;28;20031;-74
2022/07/07 22:45:48;;;;;;;0.30;0.30;;;14.90;99.90;;;;;;5094195;28;20095;-74
2022/07/07 22:48:15;;;;;;;0.20;0.20;;;14.90;99.90;;;;;;5075914;28;20570;-74
2022/07/07 22:50:40;;;;;;;0.22;0.22;;;14.80;99.90;;;;;;5094247;28;20077;-74
2022/07/07 22:53:06;;;;;;;0.77;0.63;;;14.60;99.90;;;;;;5094599;28;20473;-75
2022/07/07 22:55:33;;;;;;;0.50;0.50;;;14.40;99.90;;;;;;5095161;28;20024;-75
2022/07/07 22:57:59;;;;;;;0.10;0.10;;;14.40;99.90;;;;;;5095405;28;20031;-74
2022/07/07 23:00:25;;;;;;;0.30;0.30;;;14.30;99.90;;;;;;5076891;28;20028;-75
2022/07/07 23:02:52;;;;;;;0.50;0.50;;;14.20;99.90;;;;;;5095307;28;20024;-75
2022/07/07 23:05:18;;;;;;;0.82;0.82;;;14.00;99.90;;;;;;5095262;28;20464;-75
2022/07/07 23:07:43;;;;;;;0.20;0.20;;;14.00;99.90;;;;;;5095386;28;20040;-75
2022/07/07 23:10:10;;;;;;;0.25;0.25;;;13.80;99.90;;;;;;5095254;28;20020;-74
2022/07/07 23:12:36;;;;;;;0.45;0.45;;;13.70;99.90;;;;;;5095076;28;20036;-74
2022/07/07 23:15:01;;;;;;;0.40;0.40;;;13.70;99.90;;;;;;5095021;28;20030;-74
2022/07/07 23:17:27;;;;;;;0.70;0.70;;;13.50;99.90;;;;;;5095013;28;20077;-75
2022/07/07 23:19:53;;;;;;;0.70;0.70;;;13.50;99.90;;;;;;5095039;28;20472;-74
2022/07/07 23:22:20;;;;;;;0.50;0.50;;;13.40;99.90;;;;;;5094964;28;20077;-75
2022/07/07 23:24:46;;;;;;;0.32;0.30;;;13.20;99.90;;;;;;5094684;28;20024;-74
2022/07/07 23:27:12;;;;;;;0.90;0.90;;;13.10;99.90;;;;;;5094763;28;20055;-75
2022/07/07 23:29:37;;;;;;;0.35;0.35;;;13.10;99.90;;;;;;5076447;28;20016;-74
2022/07/07 23:32:03;;;;;;;0.88;0.85;;;13.00;99.90;;;;;;5076069;28;20035;-74
2022/07/07 23:34:29;;;;;;;0.20;0.20;;;13.00;99.90;;;;;;5076574;28;20031;-74
2022/07/07 23:36:55;;;;;;;0.40;0.40;;;13.00;99.90;;;;;;5076515;28;20445;-74
2022/07/07 23:39:20;;;;;;;0.68;0.65;;;13.00;99.90;;;;;;5094655;28;20017;-74
2022/07/07 23:41:46;;;;;;;1.23;0.30;;;12.90;99.90;;;;;;5076405;28;20038;-75
2022/07/07 23:44:12;;;;;;;0.70;0.70;;;12.90;99.90;;;;;;5094470;28;20024;-74
2022/07/07 23:46:37;;;;;;;0.40;0.40;;;12.90;99.90;;;;;;5094477;28;20032;-74
2022/07/07 23:49:03;;;;;;;11.80;0.47;;;12.90;99.90;;;;;;5076501;28;20052;-74
2022/07/07 23:51:29;;;;;;;1.90;1.80;;;12.80;99.90;;;;;;5094274;28;20040;-75
2022/07/07 23:53:55;;;;;;;0.40;0.40;;;12.80;99.90;;;;;;5094658;28;20040;-77
2022/07/07 23:56:20;;;;;;;0.50;0.50;;;12.80;99.90;;;;;;5094787;28;20108;-75
2022/07/07 23:58:46;;;;;;;0.75;0.68;;;12.70;99.90;;;;;;5094408;28;20107;-74
